createdAt,value
2022-08-05T00:01:29.425Z,69.16
2022-08-05T00:06:38.489Z,69.14
2022-08-05T00:11:49.125Z,69.27
2022-08-05T00:16:52.126Z,69.62
2022-08-05T00:21:55.684Z,70.03
2022-08-05T00:26:57.662Z,70.37
2022-08-05T00:32:12.426Z,70.80
2022-08-05T00:37:16.095Z,71.22
2022-08-05T00:42:31.815Z,71.48
2022-08-05T00:47:57.299Z,71.67
2022-08-05T00:52:56.207Z,71.96
2022-08-05T00:57:59.321Z,72.23
2022-08-05T01:03:01.274Z,72.28
2022-08-05T01:08:42.276Z,72.35
2022-08-05T01:13:58.288Z,72.28
2022-08-05T01:19:07.025Z,72.60
2022-08-05T01:24:14.223Z,72.65
2022-08-05T01:29:36.704Z,72.79
2022-08-05T01:34:44.981Z,72.83
2022-08-05T01:39:50.896Z,72.87
2022-08-05T01:44:54.826Z,72.98
2022-08-05T01:50:00.446Z,72.97
2022-08-05T01:55:08.983Z,72.93
2022-08-05T02:00:12.531Z,73.11
2022-08-05T02:05:34.385Z,73.15
2022-08-05T02:10:41.872Z,73.33
2022-08-05T02:16:03.517Z,73.62
2022-08-05T02:21:16.497Z,73.88
2022-08-05T02:26:22.129Z,74.15
2022-08-05T02:31:28.400Z,74.38
2022-08-05T02:36:31.860Z,74.57
2022-08-05T02:41:36.409Z,74.69
2022-08-05T02:46:59.836Z,73.85
2022-08-05T02:52:04.830Z,74.09
2022-08-05T02:58:11.015Z,74.17
2022-08-05T03:02:34.585Z,74.15
2022-08-05T03:08:00.912Z,74.54
2022-08-05T03:18:08.827Z,75.13
2022-08-05T03:23:12.033Z,75.18
2022-08-05T03:28:18.752Z,75.53
2022-08-05T03:33:21.938Z,75.60
2022-08-05T03:38:33.269Z,75.54
2022-08-05T03:44:09.663Z,75.67
2022-08-05T03:49:30.800Z,75.43
2022-08-05T03:55:06.940Z,74.61
2022-08-05T04:00:15.475Z,72.79
2022-08-05T04:05:20.039Z,70.82
2022-08-05T04:10:27.818Z,68.13
2022-08-05T04:15:33.265Z,65.12
2022-08-05T04:20:37.817Z,61.65
2022-08-05T04:26:00.662Z,58.29
2022-08-05T04:31:02.887Z,55.79
2022-08-05T04:36:16.311Z,54.73
2022-08-05T04:41:37.629Z,53.35
2022-08-05T04:46:40.737Z,51.27
2022-08-05T04:51:48.898Z,49.00
2022-08-05T04:57:02.214Z,47.39
2022-08-05T05:02:07.569Z,46.34
2022-08-05T05:07:29.665Z,44.78
2022-08-05T05:12:36.827Z,43.97
2022-08-05T05:17:57.179Z,43.70
2022-08-05T05:23:03.119Z,43.78
2022-08-05T05:28:11.192Z,44.94
2022-08-05T05:33:16.909Z,46.52
2022-08-05T05:38:22.521Z,49.58
2022-08-05T05:43:58.329Z,50.62
2022-08-05T05:48:50.977Z,51.38
2022-08-05T05:53:57.747Z,52.59
2022-08-05T05:59:07.960Z,53.46
2022-08-05T06:04:12.770Z,53.42
2022-08-05T06:09:17.370Z,51.97
2022-08-05T06:14:28.867Z,50.29
2022-08-05T06:19:34.801Z,48.19
2022-08-05T06:24:41.954Z,46.95
2022-08-05T06:30:04.424Z,45.83
2022-08-05T06:35:15.417Z,45.40
2022-08-05T06:40:44.824Z,46.24
2022-08-05T06:46:06.552Z,48.00
2022-08-05T06:51:22.722Z,48.59
2022-08-05T06:56:34.169Z,49.25
2022-08-05T07:01:36.958Z,49.34
2022-08-05T07:06:40.721Z,49.54
2022-08-05T07:11:46.683Z,49.39
2022-08-05T07:18:01.835Z,49.41
2022-08-05T07:22:27.796Z,49.24
2022-08-05T07:27:57.456Z,47.96
2022-08-05T07:32:53.441Z,46.97
2022-08-05T07:37:55.471Z,45.42
2022-08-05T07:42:57.738Z,45.29
2022-08-05T07:48:00.802Z,44.45
2022-08-05T07:53:03.448Z,43.24
2022-08-05T07:58:07.029Z,42.33
2022-08-05T08:03:21.546Z,42.10
2022-08-05T08:08:23.558Z,41.65
2022-08-05T08:13:28.996Z,39.81
2022-08-05T08:18:31.072Z,39.36
2022-08-05T08:24:02.399Z,38.93
2022-08-05T08:28:59.464Z,39.63
2022-08-05T08:34:01.685Z,38.69
2022-08-05T08:39:03.676Z,37.94
2022-08-05T08:45:22.445Z,36.73
2022-08-05T08:50:14.546Z,36.47
2022-08-05T08:55:13.214Z,35.56
2022-08-05T09:00:15.658Z,35.18
2022-08-05T09:05:38.432Z,35.11
2022-08-05T09:10:46.866Z,34.33
2022-08-05T09:15:49.385Z,34.47
2022-08-05T09:20:58.902Z,34.07
2022-08-05T09:26:15.929Z,31.64
2022-08-05T09:32:39.941Z,32.32
2022-08-05T09:36:59.770Z,31.78
2022-08-05T09:42:03.883Z,31.49
2022-08-05T09:47:14.013Z,30.89
2022-08-05T09:52:36.291Z,31.14
2022-08-05T09:58:07.510Z,30.48
2022-08-05T10:03:23.597Z,29.69
2022-08-05T10:08:42.423Z,29.28
2022-08-05T10:13:48.368Z,28.80
2022-08-05T10:18:51.430Z,28.65
2022-08-05T10:23:58.995Z,28.66
2022-08-05T10:29:02.730Z,28.23
2022-08-05T10:34:07.850Z,26.57
2022-08-05T10:39:25.285Z,26.85
2022-08-05T10:44:39.258Z,26.99
2022-08-05T10:50:31.515Z,26.58
2022-08-05T10:55:30.406Z,26.46
2022-08-05T11:00:48.428Z,25.76
2022-08-05T11:06:15.812Z,25.63
2022-08-05T11:11:44.669Z,25.13
2022-08-05T11:17:58.090Z,25.40
2022-08-05T11:22:50.028Z,25.09
2022-08-05T11:28:00.702Z,25.08
2022-08-05T11:33:22.710Z,24.95
2022-08-05T11:38:45.977Z,25.05
2022-08-05T11:44:05.215Z,24.46
2022-08-05T11:49:13.900Z,24.93
2022-08-05T11:54:32.878Z,24.48
2022-08-05T11:59:42.050Z,24.08
2022-08-05T12:04:59.303Z,23.69
2022-08-05T12:10:09.116Z,23.87
2022-08-05T12:15:38.338Z,23.05
2022-08-05T12:20:42.294Z,23.32
2022-08-05T12:25:51.128Z,23.33
2022-08-05T12:30:53.221Z,22.80
2022-08-05T12:35:57.980Z,22.46
2022-08-05T12:40:59.857Z,22.43
2022-08-05T12:46:01.748Z,21.88
2022-08-05T12:52:10.451Z,21.81
2022-08-05T12:56:35.282Z,21.95
2022-08-05T13:02:00.763Z,21.94
2022-08-05T13:07:03.207Z,21.96
2022-08-05T13:12:16.452Z,21.48
2022-08-05T13:17:24.979Z,21.26
2022-08-05T13:22:38.032Z,21.06
2022-08-05T13:27:42.366Z,21.21
2022-08-05T13:32:50.625Z,21.43
2022-08-05T13:37:55.605Z,21.93
2022-08-05T13:42:57.911Z,21.82
2022-08-05T13:48:57.550Z,21.50
2022-08-05T13:53:48.002Z,21.75
2022-08-05T13:58:52.889Z,21.91
2022-08-05T14:04:14.381Z,21.85
2022-08-05T14:09:16.938Z,21.76
2022-08-05T14:14:26.086Z,21.44
2022-08-05T14:19:56.067Z,21.63
2022-08-05T14:25:19.036Z,21.77
2022-08-05T14:30:26.405Z,22.34
2022-08-05T14:35:37.412Z,21.79
2022-08-05T14:40:50.765Z,21.57
2022-08-05T14:45:52.546Z,21.80
2022-08-05T14:50:55.501Z,21.88
2022-08-05T14:55:57.404Z,22.25
2022-08-05T15:01:00.405Z,21.85
2022-08-05T15:06:08.014Z,21.86
2022-08-05T15:11:15.155Z,22.24
2022-08-05T15:16:18.314Z,22.55
2022-08-05T15:21:21.309Z,22.73
2022-08-05T15:26:32.293Z,22.97
2022-08-05T15:31:34.929Z,23.25
2022-08-05T15:36:37.031Z,23.81
2022-08-05T15:41:55.625Z,24.09
2022-08-05T15:47:01.233Z,24.34
2022-08-05T15:52:16.656Z,24.03
2022-08-05T15:57:25.844Z,23.84
2022-08-05T16:02:35.045Z,23.44
2022-08-05T16:07:37.155Z,22.98
2022-08-05T16:12:39.367Z,22.91
2022-08-05T16:17:41.675Z,22.70
2022-08-05T16:23:03.655Z,22.78
2022-08-05T16:28:16.310Z,22.66
2022-08-05T16:33:18.866Z,22.31
2022-08-05T16:38:25.185Z,22.09
2022-08-05T16:43:31.466Z,21.74
2022-08-05T16:48:35.629Z,21.42
2022-08-05T16:54:05.770Z,21.44
2022-08-05T16:59:10.396Z,21.32
2022-08-05T17:04:12.232Z,21.03
2022-08-05T17:09:17.052Z,20.97
2022-08-05T17:14:34.230Z,21.13
2022-08-05T17:19:45.598Z,21.23
2022-08-05T17:24:58.270Z,21.52
2022-08-05T17:30:02.386Z,21.83
2022-08-05T17:35:04.839Z,22.48
2022-08-05T17:40:10.270Z,23.07
2022-08-05T17:45:19.952Z,24.68
2022-08-05T17:50:28.435Z,26.40
2022-08-05T17:55:37.198Z,27.81
2022-08-05T18:00:45.050Z,29.39
2022-08-05T18:05:53.439Z,30.77
2022-08-05T18:10:56.456Z,32.18
2022-08-05T18:15:59.107Z,34.11
2022-08-05T18:21:01.667Z,35.57
2022-08-05T18:26:03.555Z,36.95
2022-08-05T18:31:07.288Z,38.68
2022-08-05T18:36:15.395Z,40.80
2022-08-05T18:41:56.635Z,42.20
2022-08-05T18:46:41.324Z,44.04
2022-08-05T18:52:32.662Z,45.64
2022-08-05T18:57:25.830Z,45.97
2022-08-05T19:02:28.859Z,47.08
2022-08-05T19:07:45.388Z,48.93
2022-08-05T19:13:02.370Z,53.84
2022-08-05T19:18:20.691Z,52.76
2022-08-05T19:24:06.718Z,52.31
2022-08-05T19:28:45.597Z,52.75
2022-08-05T19:33:56.892Z,53.04
2022-08-05T19:39:01.208Z,59.13
2022-08-05T19:44:13.016Z,58.54
2022-08-05T19:49:17.265Z,58.01
2022-08-05T19:54:25.429Z,57.65
2022-08-05T19:59:56.308Z,57.84
2022-08-05T20:05:04.708Z,58.11
2022-08-05T20:10:11.681Z,58.13
2022-08-05T20:15:22.992Z,59.53
2022-08-05T20:20:38.955Z,62.14
2022-08-05T20:25:40.884Z,63.82
2022-08-05T20:30:42.676Z,63.86
2022-08-05T20:35:45.663Z,64.07
2022-08-05T20:40:47.994Z,65.24
2022-08-05T20:45:56.721Z,65.52
2022-08-05T20:50:58.998Z,65.19
2022-08-05T20:56:35.445Z,65.66
2022-08-05T21:01:45.049Z,65.89
2022-08-05T21:06:46.939Z,66.61
2022-08-05T21:12:09.426Z,66.65
2022-08-05T21:17:11.910Z,66.93
2022-08-05T21:22:14.325Z,67.14
2022-08-05T21:27:16.714Z,67.20
2022-08-05T21:32:19.889Z,67.76
2022-08-05T21:37:22.010Z,68.58
2022-08-05T21:42:30.880Z,68.42
2022-08-05T21:47:55.621Z,68.84
2022-08-05T21:53:08.527Z,68.85
2022-08-05T21:58:19.422Z,69.58
2022-08-05T22:03:51.799Z,69.57
2022-08-05T22:08:43.730Z,69.21
2022-08-05T22:14:19.510Z,69.27
2022-08-05T22:19:56.156Z,69.79
2022-08-05T22:24:55.849Z,70.75
2022-08-05T22:29:58.161Z,70.98
2022-08-05T22:34:59.978Z,70.93
2022-08-05T22:40:02.366Z,71.17
2022-08-05T22:45:04.732Z,71.69
2022-08-05T22:50:20.079Z,71.93
2022-08-05T22:55:24.094Z,72.24
2022-08-05T23:00:28.529Z,72.68
2022-08-05T23:05:36.020Z,73.46
2022-08-05T23:10:38.183Z,72.11
2022-08-05T23:15:50.205Z,73.20
2022-08-05T23:21:06.307Z,73.59
2022-08-05T23:26:18.720Z,73.91
2022-08-05T23:31:30.237Z,73.97
2022-08-05T23:36:38.454Z,73.77
2022-08-05T23:41:48.664Z,73.93
2022-08-05T23:46:51.000Z,73.71
2022-08-05T23:52:11.175Z,73.53
2022-08-05T23:57:13.002Z,72.67
